Time;durP1;ratioP1;P1;durP2;ratioP2;P2;SDS_P1;SDS_P2;PMS_P1;PMS_P2;Temp;Humidity;BMP_temperature;BMP_pressure;BME280_temperature;BME280_humidity;BME280_pressure;Samples;Min_cycle;Max_cycle;Signal;HPM_P1;HPM_P2
2022/01/22 00:00:30;;;;;;;10.17;6.50;;;;;;;2.38;100.00;101963.72;5022173;28;20461;-46
2022/01/22 00:02:56;;;;;;;8.93;6.67;;;;;;;2.37;100.00;101964.53;5016614;28;20192;-46
2022/01/22 00:05:22;;;;;;;9.73;6.47;;;;;;;2.36;100.00;101962.78;5015518;28;20531;-46
2022/01/22 00:07:48;;;;;;;8.43;6.23;;;;;;;2.36;100.00;101965.31;5016858;28;20210;-45
2022/01/22 00:10:16;;;;;;;9.50;6.30;;;;;;;2.36;100.00;101955.09;5022408;28;20282;-46
2022/01/22 00:15:18;;;;;;;9.97;7.20;;;;;;;2.36;100.00;101958.53;5015832;28;20187;-46
2022/01/22 00:17:44;;;;;;;8.57;6.90;;;;;;;2.37;100.00;101949.19;5018100;28;20211;-46
2022/01/22 00:20:11;;;;;;;9.83;6.40;;;;;;;2.35;100.00;101951.66;5016845;28;20195;-46
2022/01/22 00:22:37;;;;;;;9.30;7.03;;;;;;;2.35;100.00;101953.34;5015083;28;20226;-46
2022/01/22 00:25:08;;;;;;;9.60;7.23;;;;;;;2.35;100.00;101949.09;5007994;28;20235;-45
2022/01/22 00:27:35;;;;;;;10.40;7.13;;;;;;;2.34;100.00;101961.81;5021294;28;20265;-45
2022/01/22 00:30:01;;;;;;;9.70;7.20;;;;;;;2.32;100.00;101956.63;5017196;28;20188;-45
2022/01/22 00:32:26;;;;;;;7.77;6.97;;;;;;;2.34;100.00;101967.81;5020372;28;20231;-45
2022/01/22 00:34:52;;;;;;;9.57;7.77;;;;;;;2.36;100.00;101961.09;5033627;28;20255;-45
2022/01/22 00:37:17;;;;;;;10.23;7.43;;;;;;;2.35;100.00;101964.44;5015861;28;20207;-45
2022/01/22 00:39:43;;;;;;;9.00;6.80;;;;;;;2.35;100.00;101954.22;5019871;28;20192;-46
2022/01/22 00:42:12;;;;;;;11.20;7.90;;;;;;;2.35;100.00;101948.25;5022824;28;20266;-46
2022/01/22 00:44:39;;;;;;;8.57;6.77;;;;;;;2.36;100.00;101942.34;5015773;28;20675;-45
2022/01/22 00:47:05;;;;;;;9.23;6.70;;;;;;;2.36;100.00;101948.31;4992243;28;20612;-45
2022/01/22 00:49:31;;;;;;;9.70;7.17;;;;;;;2.39;100.00;101951.03;5019901;28;20227;-45
2022/01/22 00:51:56;;;;;;;8.53;7.30;;;;;;;2.42;100.00;101950.31;5019577;28;20200;-46
2022/01/22 00:54:22;;;;;;;8.30;7.40;;;;;;;2.41;100.00;101951.97;5015047;28;20188;-46
2022/01/22 00:56:48;;;;;;;9.53;7.57;;;;;;;2.41;100.00;101946.00;5015930;28;20556;-45
2022/01/22 00:59:13;;;;;;;8.43;6.57;;;;;;;2.42;100.00;101948.63;5015204;28;20211;-45
2022/01/22 01:01:39;;;;;;;8.77;7.10;;;;;;;2.44;100.00;101948.69;5022056;28;20587;-45
2022/01/22 01:04:07;;;;;;;11.33;7.03;;;;;;;2.42;100.00;101940.97;5035784;28;20187;-45
2022/01/22 01:06:33;;;;;;;9.90;6.80;;;;;;;2.43;100.00;101936.72;5023079;28;20200;-45
2022/01/22 01:09:00;;;;;;;9.60;7.23;;;;;;;2.42;100.00;101938.41;5021802;28;20219;-45
2022/01/22 01:11:27;;;;;;;10.83;7.77;;;;;;;2.41;100.00;101946.88;5028869;28;20244;-47
2022/01/22 01:13:58;;;;;;;8.00;6.70;;;;;;;2.39;100.00;101940.81;4998307;28;20586;-44
2022/01/22 01:32:54;;;;;;;9.53;7.57;;;;;;;2.41;100.00;101941.75;5021391;28;20710;-45
2022/01/22 01:35:21;;;;;;;11.63;7.40;;;;;;;2.41;100.00;101944.31;5014996;28;20190;-47
2022/01/22 01:37:47;;;;;;;8.80;7.00;;;;;;;2.39;100.00;101951.03;4998595;28;20295;-46
2022/01/22 01:40:16;;;;;;;9.27;7.83;;;;;;;2.41;100.00;101949.44;5015898;28;20693;-46
2022/01/22 01:42:51;;;;;;;9.00;7.43;;;;;;;2.41;100.00;101939.22;5038879;28;20184;-46
2022/01/22 01:45:17;;;;;;;10.57;7.40;;;;;;;2.39;100.00;101955.28;5034250;28;20190;-46
2022/01/22 01:47:45;;;;;;;9.17;7.33;;;;;;;2.38;100.00;101954.38;5021881;28;20686;-46
2022/01/22 01:50:11;;;;;;;9.87;7.63;;;;;;;2.38;100.00;101944.16;5011670;28;20209;-46
2022/01/22 01:52:51;;;;;;;10.80;8.23;;;;;;;2.42;100.00;101942.66;5029857;28;20211;-44
2022/01/22 01:55:32;;;;;;;9.10;7.37;;;;;;;2.40;100.00;101940.00;5032580;28;20193;-46
2022/01/22 01:57:57;;;;;;;10.13;8.00;;;;;;;2.38;100.00;101959.50;5018383;28;20207;-47
2022/01/22 02:00:26;;;;;;;9.33;7.50;;;;;;;2.40;100.00;101954.47;5036788;28;20179;-46
2022/01/22 02:02:52;;;;;;;9.27;7.67;;;;;;;2.38;100.00;101951.81;5024456;28;20180;-46
2022/01/22 02:05:21;;;;;;;9.97;7.30;;;;;;;2.37;100.00;101954.31;5025369;28;20183;-45
2022/01/22 02:07:46;;;;;;;9.97;7.87;;;;;;;2.36;100.00;101950.00;5031541;28;20250;-45
2022/01/22 02:10:19;;;;;;;10.07;7.80;;;;;;;2.36;100.00;101955.09;5042376;28;20266;-46
2022/01/22 02:23:40;;;;;;;9.53;7.90;;;;;;;2.27;100.00;101941.03;5029549;28;20671;-46
2022/01/22 02:26:08;;;;;;;10.40;8.00;;;;;;;2.27;100.00;101933.38;5032186;28;20299;-46
2022/01/22 02:28:34;;;;;;;10.80;7.77;;;;;;;2.29;100.00;101936.88;5017344;28;20221;-46
2022/01/22 02:31:19;;;;;;;12.23;8.50;;;;;;;2.29;100.00;101936.03;5030841;28;20188;-45
2022/01/22 02:33:54;;;;;;;10.87;8.13;;;;;;;2.31;100.00;101929.31;5003333;28;20212;-46
2022/01/22 02:39:04;;;;;;;10.33;8.30;;;;;;;2.31;100.00;101929.31;5027372;28;20207;-46
2022/01/22 02:41:29;;;;;;;10.67;8.67;;;;;;;2.31;100.00;101933.53;5007184;28;20190;-46
2022/01/22 02:43:55;;;;;;;9.47;7.77;;;;;;;2.29;100.00;101939.44;5042430;28;20194;-45
2022/01/22 02:46:25;;;;;;;10.33;7.97;;;;;;;2.31;100.00;101925.88;5034059;28;20193;-45
2022/01/22 02:48:52;;;;;;;10.87;7.77;;;;;;;2.31;100.00;101928.44;5018654;28;20235;-45
2022/01/22 02:51:17;;;;;;;8.77;7.87;;;;;;;2.34;100.00;101931.16;5016525;28;20859;-45
2022/01/22 02:53:42;;;;;;;9.73;7.60;;;;;;;2.35;100.00;101927.78;5021531;28;20242;-46
2022/01/22 02:56:08;;;;;;;7.87;6.97;;;;;;;2.35;100.00;101931.22;5017561;28;20575;-46
2022/01/22 02:58:34;;;;;;;9.37;7.13;;;;;;;2.36;100.00;101929.56;5027403;28;20215;-47
2022/01/22 03:01:02;;;;;;;8.20;7.30;;;;;;;2.39;100.00;101933.13;5016683;28;20343;-46
2022/01/22 03:03:28;;;;;;;10.90;7.37;;;;;;;2.39;100.00;101935.69;5020793;28;20183;-45
2022/01/22 03:05:53;;;;;;;8.97;7.47;;;;;;;2.39;100.00;101940.81;5024053;28;20211;-46
2022/01/22 03:08:19;;;;;;;9.70;7.57;;;;;;;2.39;100.00;101945.91;5019042;28;20214;-46
2022/01/22 03:10:50;;;;;;;9.67;7.23;;;;;;;2.41;100.00;101943.47;5026873;28;20183;-46
2022/01/22 03:16:07;;;;;;;10.37;7.70;;;;;;;2.43;100.00;101935.06;5003738;28;20198;-46
2022/01/22 03:21:39;;;;;;;11.60;8.17;;;;;;;2.44;100.00;101928.25;5034364;28;20197;-47
2022/01/22 03:29:36;;;;;;;13.80;8.67;;;;;;;2.42;100.00;101925.63;5023232;28;20259;-47
2022/01/22 03:32:03;;;;;;;13.70;9.33;;;;;;;2.42;100.00;101925.63;5017126;28;20685;-46
2022/01/22 03:34:35;;;;;;;11.47;9.17;;;;;;;2.40;100.00;101922.13;5018874;28;20196;-46
2022/01/22 03:37:01;;;;;;;11.43;9.13;;;;;;;2.41;100.00;101923.00;5027089;28;20225;-46
2022/01/22 03:39:26;;;;;;;11.43;9.77;;;;;;;2.38;100.00;101930.53;5020020;28;20239;-46
2022/01/22 03:41:52;;;;;;;13.90;10.00;;;;;;;2.36;100.00;101927.88;5025381;28;20189;-46
2022/01/22 03:44:18;;;;;;;12.87;10.13;;;;;;;2.35;100.00;101931.22;5018921;28;20190;-45
2022/01/22 03:46:43;;;;;;;13.27;9.47;;;;;;;2.34;100.00;101937.16;5028521;28;20184;-46
2022/01/22 03:49:10;;;;;;;13.60;10.10;;;;;;;2.35;100.00;101933.78;5016222;28;20294;-46
2022/01/22 03:51:36;;;;;;;12.60;9.80;;;;;;;2.35;100.00;101928.66;5016682;28;20675;-46
2022/01/22 03:54:03;;;;;;;10.33;9.33;;;;;;;2.36;100.00;101934.66;5024476;28;20219;-46
2022/01/22 03:56:29;;;;;;;11.13;9.47;;;;;;;2.36;100.00;101938.09;5020800;28;20199;-46
2022/01/22 03:58:54;;;;;;;13.70;9.87;;;;;;;2.38;100.00;101930.53;5018326;28;20266;-46
2022/01/22 04:02:01;;;;;;;12.40;9.43;;;;;;;2.38;100.00;101927.97;4995113;28;20191;-46
2022/01/22 04:04:18;;;;;;;10.83;9.73;;;;;;;2.38;100.00;101921.16;5029722;28;20206;-46
2022/01/22 04:09:13;;;;;;;11.47;9.50;;;;;;;2.39;100.00;101907.59;5022337;28;20288;-45
2022/01/22 04:11:42;;;;;;;12.47;9.37;;;;;;;2.41;100.00;101917.91;5022208;28;20238;-45
2022/01/22 04:14:14;;;;;;;11.80;9.70;;;;;;;2.41;100.00;101911.09;5021893;28;20188;-45
2022/01/22 04:16:58;;;;;;;12.97;9.63;;;;;;;2.41;100.00;101912.78;5020623;28;20242;-45
2022/01/22 04:24:55;;;;;;;10.63;8.83;;;;;;;2.40;100.00;101914.44;5024484;28;20272;-47
2022/01/22 04:27:26;;;;;;;11.93;8.50;;;;;;;2.42;100.00;101920.53;5021662;28;20205;-45
2022/01/22 04:29:54;;;;;;;11.83;8.97;;;;;;;2.45;100.00;101922.34;5023214;28;20652;-46
2022/01/22 04:32:20;;;;;;;10.90;7.93;;;;;;;2.46;100.00;101913.88;5019517;28;20591;-45
2022/01/22 04:34:46;;;;;;;9.63;7.83;;;;;;;2.48;100.00;101916.53;5018926;28;20653;-46
2022/01/22 04:37:12;;;;;;;11.83;8.10;;;;;;;2.48;100.00;101911.44;5013552;28;21241;-46
2022/01/22 04:39:37;;;;;;;14.10;8.60;;;;;;;2.49;100.00;101919.16;5019940;28;20680;-47
2022/01/22 04:42:06;;;;;;;12.43;8.37;;;;;;;2.50;100.00;101922.56;5016624;28;20180;-46
2022/01/22 04:44:37;;;;;;;11.50;8.23;;;;;;;2.51;100.00;101912.44;5021589;28;20199;-46
2022/01/22 04:55:13;;;;;;;10.33;8.23;;;;;;;2.55;100.00;101921.13;4976090;28;20642;-46
2022/01/22 04:57:42;;;;;;;12.90;8.77;;;;;;;2.59;100.00;101923.91;5000412;28;20285;-46
2022/01/22 05:00:14;;;;;;;14.40;9.33;;;;;;;2.61;100.00;101918.91;5008569;28;20196;-45
2022/01/22 05:02:40;;;;;;;13.40;8.97;;;;;;;2.60;100.00;101917.16;5018965;28;20191;-45
2022/01/22 05:05:07;;;;;;;11.67;9.33;;;;;;;2.63;100.00;101913.84;5020210;28;20802;-45
2022/01/22 05:07:32;;;;;;;12.10;9.37;;;;;;;2.64;100.00;101924.19;5003751;28;20705;-45
2022/01/22 05:09:58;;;;;;;10.60;9.43;;;;;;;2.63;100.00;101912.19;5021130;28;20222;-45
2022/01/22 05:12:23;;;;;;;11.87;10.30;;;;;;;2.64;100.00;101913.06;5015420;28;20676;-45
2022/01/22 05:14:49;;;;;;;10.73;9.57;;;;;;;2.64;100.00;101911.41;5014509;28;20554;-47
2022/01/22 05:17:17;;;;;;;15.93;11.07;;;;;;;2.64;100.00;101920.72;5027403;28;20275;-45
2022/01/22 05:22:18;;;;;;;12.20;10.67;;;;;;;2.66;100.00;101921.69;5018515;28;20266;-46
2022/01/22 05:24:48;;;;;;;11.67;9.40;;;;;;;2.67;100.00;101931.09;5017478;28;20214;-46
2022/01/22 05:37:35;;;;;;;13.30;11.00;;;;;;;2.74;100.00;101943.38;5016548;28;20230;-46
2022/01/22 05:40:01;;;;;;;13.83;11.50;;;;;;;2.78;100.00;101957.22;5019370;28;20188;-46
2022/01/22 05:42:26;;;;;;;14.23;11.17;;;;;;;2.78;100.00;101955.53;5030888;28;20194;-44
2022/01/22 05:44:52;;;;;;;13.70;11.20;;;;;;;2.80;100.00;101961.59;5027393;28;20266;-46
2022/01/22 05:47:22;;;;;;;16.63;11.57;;;;;;;2.81;100.00;101955.69;5020664;28;20211;-46
2022/01/22 05:49:48;;;;;;;13.53;10.97;;;;;;;2.81;100.00;101954.78;5027641;28;20191;-46
2022/01/22 05:52:19;;;;;;;17.57;11.63;;;;;;;2.82;100.00;101949.78;5032726;28;20206;-45
2022/01/22 06:00:09;;;;;;;16.13;11.80;;;;;;;2.82;100.00;101957.44;5033502;28;20226;-45
2022/01/22 06:02:35;;;;;;;16.43;13.20;;;;;;;2.82;100.00;101959.09;5033138;28;20215;-47
2022/01/22 06:05:00;;;;;;;15.30;12.30;;;;;;;2.82;100.00;101959.09;5018390;28;20192;-47
2022/01/22 06:07:25;;;;;;;17.87;13.30;;;;;;;2.81;100.00;101957.34;5011987;28;20953;-44
2022/01/22 06:10:02;;;;;;;17.20;13.03;;;;;;;2.82;100.00;101961.66;5012008;28;20207;-44
2022/01/22 06:13:08;;;;;;;17.40;13.53;;;;;;;2.82;100.00;101952.31;5016084;28;20268;-44
2022/01/22 06:15:14;;;;;;;17.43;12.90;;;;;;;2.81;100.00;101948.00;5013129;28;20256;-44
2022/01/22 06:17:39;;;;;;;18.10;13.37;;;;;;;2.85;100.00;101956.69;5011560;28;20215;-45
2022/01/22 06:20:06;;;;;;;19.97;13.90;;;;;;;2.85;100.00;101956.69;5011849;28;20196;-46
2022/01/22 06:22:31;;;;;;;16.63;14.33;;;;;;;2.83;100.00;101958.31;5013471;28;20215;-46
2022/01/22 06:24:57;;;;;;;17.57;12.70;;;;;;;2.83;100.00;101963.41;5019554;28;20678;-46
2022/01/22 06:27:22;;;;;;;14.43;12.63;;;;;;;2.84;100.00;101967.72;5020442;28;20190;-45
2022/01/22 06:29:48;;;;;;;16.60;12.87;;;;;;;2.84;100.00;101958.41;5017811;28;20195;-46
2022/01/22 06:32:13;;;;;;;18.60;13.90;;;;;;;2.85;100.00;101961.81;5016341;28;20341;-46
2022/01/22 06:34:39;;;;;;;17.97;14.60;;;;;;;2.85;100.00;101961.81;5008280;28;20268;-46
2022/01/22 06:37:04;;;;;;;16.17;13.43;;;;;;;2.85;100.00;101975.50;5044030;28;20190;-45
2022/01/22 06:39:30;;;;;;;15.57;13.57;;;;;;;2.84;100.00;101973.75;5016694;28;20246;-46
2022/01/22 06:41:55;;;;;;;15.30;13.13;;;;;;;2.85;100.00;101977.16;5023965;28;20218;-46
2022/01/22 06:44:24;;;;;;;14.97;13.37;;;;;;;2.85;100.00;101974.59;5011613;28;20204;-46
2022/01/22 06:46:54;;;;;;;16.10;13.17;;;;;;;2.85;100.00;101975.50;5008804;28;20698;-46
2022/01/22 06:49:20;;;;;;;15.77;14.00;;;;;;;2.85;100.00;101972.94;5020639;28;20596;-47
2022/01/22 06:51:45;;;;;;;19.20;14.63;;;;;;;2.83;100.00;101965.97;5033376;28;20199;-46
2022/01/22 06:54:13;;;;;;;15.67;13.10;;;;;;;2.81;100.00;101968.47;5032266;28;20221;-46
2022/01/22 06:56:39;;;;;;;17.63;13.53;;;;;;;2.80;100.00;101971.81;5035017;28;20192;-46
2022/01/22 06:59:06;;;;;;;16.17;13.73;;;;;;;2.81;100.00;101975.25;5026688;28;20435;-45
2022/01/22 07:01:34;;;;;;;17.40;14.47;;;;;;;2.81;100.00;101988.03;5033335;28;20191;-45
2022/01/22 07:04:00;;;;;;;21.77;15.67;;;;;;;2.81;100.00;101993.13;5023423;28;20555;-47
2022/01/22 07:06:26;;;;;;;18.07;14.87;;;;;;;2.80;100.00;101999.09;5038537;28;20199;-45
2022/01/22 07:08:51;;;;;;;19.07;15.00;;;;;;;2.81;100.00;102000.81;5013193;28;20248;-45
2022/01/22 07:11:17;;;;;;;19.60;16.07;;;;;;;2.81;100.00;102004.25;5038772;28;20253;-45
2022/01/22 07:13:43;;;;;;;16.77;14.93;;;;;;;2.82;100.00;101998.34;5034269;28;20238;-45
2022/01/22 07:16:09;;;;;;;20.33;16.80;;;;;;;2.84;100.00;102006.97;5012736;28;20199;-45
2022/01/22 07:18:34;;;;;;;18.90;14.27;;;;;;;2.83;100.00;102004.31;5035010;28;20664;-45
2022/01/22 07:21:13;;;;;;;17.73;13.57;;;;;;;2.84;100.00;101998.41;5025188;28;20191;-46
2022/01/22 07:26:08;;;;;;;15.20;12.03;;;;;;;2.85;100.00;102008.75;5038494;28;20659;-44
2022/01/22 07:28:33;;;;;;;16.63;12.23;;;;;;;2.87;100.00;102003.69;5027516;28;20277;-46
2022/01/22 07:31:03;;;;;;;14.13;11.63;;;;;;;2.87;100.00;102012.22;5027383;28;20242;-44
2022/01/22 07:33:29;;;;;;;16.70;12.40;;;;;;;2.88;100.00;102016.53;5028845;28;20260;-46
2022/01/22 07:35:54;;;;;;;16.37;12.30;;;;;;;2.90;100.00;102027.72;5034228;28;20183;-45
2022/01/22 07:38:21;;;;;;;16.53;13.40;;;;;;;2.92;100.00;102022.72;5012460;28;20218;-46
2022/01/22 07:40:47;;;;;;;19.73;13.83;;;;;;;2.93;100.00;102019.34;5025883;28;20633;-45
2022/01/22 07:43:14;;;;;;;15.97;13.63;;;;;;;2.95;100.00;102024.53;5049968;28;20190;-46
2022/01/22 07:45:40;;;;;;;16.13;14.43;;;;;;;2.95;100.00;102016.88;5045608;28;20548;-46
2022/01/22 07:48:05;;;;;;;18.83;14.40;;;;;;;2.98;100.00;102017.03;5018745;28;20265;-46
2022/01/22 07:50:31;;;;;;;15.07;12.20;;;;;;;2.99;100.00;102019.66;5022678;28;20218;-46
2022/01/22 07:52:57;;;;;;;14.43;11.80;;;;;;;3.00;100.00;102018.84;5037429;28;20212;-46
2022/01/22 07:55:23;;;;;;;13.33;11.50;;;;;;;3.02;100.00;102031.72;5006232;28;20610;-47
2022/01/22 07:57:48;;;;;;;12.93;11.47;;;;;;;3.02;100.00;102027.47;5013097;28;20243;-45
2022/01/22 08:00:16;;;;;;;18.13;14.67;;;;;;;3.05;100.00;102032.75;5023869;28;20199;-46
2022/01/22 08:02:41;;;;;;;19.60;16.53;;;;;;;3.07;100.00;102035.38;5024172;28;20276;-47
2022/01/22 08:05:07;;;;;;;25.23;20.33;;;;;;;3.09;100.00;102031.22;5013933;28;20621;-47
2022/01/22 08:07:33;;;;;;;19.60;16.47;;;;;;;3.11;100.00;102028.72;5017397;28;20203;-45
2022/01/22 08:09:58;;;;;;;20.43;15.57;;;;;;;3.12;100.00;102030.47;5019420;28;20270;-45
2022/01/22 08:12:24;;;;;;;20.13;16.37;;;;;;;3.13;100.00;102022.91;5020399;28;20287;-46
2022/01/22 08:14:50;;;;;;;22.17;15.00;;;;;;;3.15;100.00;102015.28;5016689;28;20192;-45
2022/01/22 08:17:15;;;;;;;16.33;12.77;;;;;;;3.16;100.00;102012.81;5032948;28;20248;-46
2022/01/22 08:19:41;;;;;;;17.07;12.47;;;;;;;3.19;100.00;102015.50;5018827;28;20691;-45
2022/01/22 08:22:07;;;;;;;14.80;12.00;;;;;;;3.25;100.00;102016.63;4999675;28;20203;-46
2022/01/22 08:24:32;;;;;;;17.10;12.00;;;;;;;3.27;100.00;102021.00;5016326;28;20196;-46
2022/01/22 08:29:49;;;;;;;13.20;10.23;;;;;;;3.30;100.00;102018.59;5010190;28;20207;-47
2022/01/22 08:37:28;;;;;;;14.27;10.53;;;;;;;3.34;100.00;102043.56;5010100;28;20234;-47
2022/01/22 08:39:53;;;;;;;12.17;10.30;;;;;;;3.36;100.00;102038.50;5016119;28;20227;-46
2022/01/22 08:42:21;;;;;;;12.30;10.57;;;;;;;3.38;100.00;102041.16;5022596;28;20186;-46
2022/01/22 08:44:47;;;;;;;13.57;10.33;;;;;;;3.37;100.00;102045.38;5015251;28;20200;-45
2022/01/22 08:47:13;;;;;;;14.70;11.10;;;;;;;3.39;100.00;102051.44;5014218;28;20191;-46
2022/01/22 08:49:38;;;;;;;10.97;9.80;;;;;;;3.40;100.00;102060.88;5014537;28;20298;-46
2022/01/22 08:52:11;;;;;;;10.90;9.50;;;;;;;3.41;100.00;102062.63;5022649;28;20931;-45
2022/01/22 08:54:37;;;;;;;12.47;10.03;;;;;;;3.45;100.00;102056.88;5016421;28;20195;-45
2022/01/22 08:57:03;;;;;;;11.73;10.50;;;;;;;3.48;100.00;102062.13;5016779;28;20199;-46
2022/01/22 08:59:28;;;;;;;12.73;10.07;;;;;;;3.54;100.00;102053.88;5018554;28;20257;-46
2022/01/22 09:01:53;;;;;;;12.73;9.43;;;;;;;3.63;100.00;102050.91;5011528;28;20219;-47
2022/01/22 09:04:19;;;;;;;12.20;9.90;;;;;;;3.70;100.00;102047.81;5034435;28;20254;-47
2022/01/22 09:06:44;;;;;;;12.03;9.57;;;;;;;3.77;100.00;102046.41;5000837;28;20192;-46
2022/01/22 09:09:12;;;;;;;14.33;10.67;;;;;;;3.82;100.00;102057.78;5018771;28;20215;-46
2022/01/22 09:11:41;;;;;;;12.07;10.07;;;;;;;3.87;100.00;102052.84;5031997;28;20278;-46
2022/01/22 09:14:10;;;;;;;11.77;10.43;;;;;;;3.91;100.00;102041.97;5025590;28;20215;-47
2022/01/22 09:16:37;;;;;;;13.70;10.90;;;;;;;3.95;100.00;102047.28;5001485;28;20192;-47
2022/01/22 09:19:09;;;;;;;17.07;10.20;;;;;;;4.00;100.00;102037.25;5014455;28;20212;-47
2022/01/22 09:21:37;;;;;;;12.30;10.37;;;;;;;4.05;100.00;102048.59;5020800;28;20278;-47
2022/01/22 09:24:03;;;;;;;12.37;9.90;;;;;;;4.06;100.00;102044.34;5019368;28;20368;-47
2022/01/22 09:26:29;;;;;;;15.37;9.97;;;;;;;4.10;100.00;102048.81;5026570;28;20210;-47
2022/01/22 09:28:58;;;;;;;12.87;9.70;;;;;;;4.14;100.00;102057.50;5016866;28;20222;-46
2022/01/22 09:31:24;;;;;;;13.13;9.50;;;;;;;4.17;100.00;102057.66;5018172;28;20218;-46
2022/01/22 09:33:50;;;;;;;12.77;9.93;;;;;;;4.17;100.00;102060.22;5017793;28;20302;-45
2022/01/22 09:36:15;;;;;;;11.57;9.23;;;;;;;4.17;100.00;102070.47;5020351;28;20647;-45
2022/01/22 09:38:41;;;;;;;11.90;9.30;;;;;;;4.18;100.00;102067.97;5007162;28;20659;-45
2022/01/22 09:41:06;;;;;;;16.03;10.40;;;;;;;4.22;100.00;102069.88;5000713;28;20191;-45
2022/01/22 09:43:33;;;;;;;11.83;9.93;;;;;;;4.23;100.00;102074.19;5012745;28;20218;-45
2022/01/22 09:45:58;;;;;;;13.33;10.17;;;;;;;4.21;100.00;102073.22;5011981;28;20657;-44
2022/01/22 09:48:24;;;;;;;13.17;9.60;;;;;;;4.20;100.00;102071.47;5014990;28;20240;-45
2022/01/22 09:50:50;;;;;;;12.93;9.70;;;;;;;4.20;100.00;102071.47;5015933;28;20198;-45
2022/01/22 09:53:15;;;;;;;10.93;9.83;;;;;;;4.21;100.00;102077.50;5017640;28;20270;-45
2022/01/22 09:55:41;;;;;;;12.43;9.87;;;;;;;4.21;100.00;102077.50;4995449;28;20694;-46
2022/01/22 09:58:07;;;;;;;15.07;10.90;;;;;;;4.23;100.00;102081.88;5018318;28;20211;-46
2022/01/22 10:00:33;;;;;;;12.30;10.53;;;;;;;4.22;100.00;102082.69;5015986;28;20577;-46
2022/01/22 10:02:59;;;;;;;18.17;11.00;;;;;;;4.25;100.00;102087.06;5015408;28;20203;-46
2022/01/22 10:05:28;;;;;;;14.23;10.87;;;;;;;4.26;100.00;102089.72;5015848;28;20192;-46
2022/01/22 10:08:14;;;;;;;15.27;10.53;;;;;;;4.30;100.00;102074.47;5004541;28;20286;-46
2022/01/22 10:10:40;;;;;;;14.07;10.33;;;;;;;4.33;100.00;102078.03;5015410;28;20204;-46
2022/01/22 10:13:05;;;;;;;13.60;9.97;;;;;;;4.35;100.00;102078.09;5031755;28;20207;-46
2022/01/22 10:15:34;;;;;;;14.17;10.50;;;;;;;4.38;100.00;102084.28;5018884;28;20197;-46
2022/01/22 10:17:59;;;;;;;14.37;11.03;;;;;;;4.40;100.00;102080.06;5013604;28;20546;-46
2022/01/22 10:20:30;;;;;;;15.70;10.43;;;;;;;4.42;100.00;102068.19;5012753;28;20234;-46
2022/01/22 10:23:02;;;;;;;12.50;10.23;;;;;;;4.49;100.00;102069.34;5031273;28;20302;-46
2022/01/22 10:25:32;;;;;;;13.50;10.57;;;;;;;4.53;100.00;102073.81;5019039;28;20273;-46
2022/01/22 10:28:01;;;;;;;12.43;10.40;;;;;;;4.53;100.00;102078.94;5019421;28;20224;-46
2022/01/22 10:30:35;;;;;;;14.97;10.70;;;;;;;4.52;100.00;102081.44;5024960;28;20194;-46
2022/01/22 10:35:50;;;;;;;13.73;10.63;;;;;;;4.49;100.00;102091.56;5016135;28;20199;-46
2022/01/22 10:38:21;;;;;;;13.63;11.23;;;;;;;4.48;100.00;102094.94;5007722;28;20219;-46
2022/01/22 10:40:49;;;;;;;14.67;10.43;;;;;;;4.45;100.00;102090.56;5023569;28;20944;-45
2022/01/22 10:43:32;;;;;;;13.80;10.67;;;;;;;4.46;100.00;102097.44;5011817;28;20203;-46
2022/01/22 10:46:41;;;;;;;14.57;10.77;;;;;;;4.48;100.00;102093.22;5020657;28;20498;-46
2022/01/22 10:49:10;;;;;;;14.73;10.30;;;;;;;4.49;100.00;102081.31;5023883;28;20217;-46
2022/01/22 10:51:52;;;;;;;12.97;10.67;;;;;;;4.50;100.00;102078.78;5019401;28;20201;-47
2022/01/22 10:54:23;;;;;;;12.87;10.57;;;;;;;4.51;100.00;102072.88;4997941;28;20287;-47
2022/01/22 10:56:49;;;;;;;16.47;11.20;;;;;;;4.53;100.00;102070.38;4997117;28;20183;-47
2022/01/22 10:59:17;;;;;;;13.20;10.33;;;;;;;4.55;100.00;102063.63;5016212;28;20666;-47
2022/01/22 11:01:53;;;;;;;13.30;10.03;;;;;;;4.59;100.00;102060.38;5019178;28;20216;-47
2022/01/22 11:04:18;;;;;;;14.07;10.27;;;;;;;4.62;100.00;102065.66;5001942;28;20193;-47
2022/01/22 11:06:47;;;;;;;14.20;10.80;;;;;;;4.66;100.00;102070.13;5014863;28;20659;-47
2022/01/22 11:09:12;;;;;;;13.60;11.03;;;;;;;4.68;100.00;102059.91;5023092;28;20231;-46
2022/01/22 11:11:40;;;;;;;13.73;11.07;;;;;;;4.70;100.00;102055.72;5024594;28;20675;-45
2022/01/22 11:14:08;;;;;;;16.10;11.33;;;;;;;4.71;100.00;102058.34;5016667;28;20218;-46
2022/01/22 11:16:36;;;;;;;12.93;11.30;;;;;;;4.77;100.00;102060.31;5000716;28;20634;-45
2022/01/22 11:19:03;;;;;;;15.67;11.37;;;;;;;4.84;100.00;102054.66;5022884;28;20691;-47
2022/01/22 11:21:31;;;;;;;14.00;11.93;;;;;;;4.92;100.00;102057.53;5025007;28;20648;-46
2022/01/22 11:23:57;;;;;;;16.97;11.97;;;;;;;4.98;100.00;102056.91;4999829;28;20610;-47
2022/01/22 11:26:24;;;;;;;11.43;9.83;;;;;;;5.03;100.00;102060.56;5016632;28;20232;-47
2022/01/22 11:28:52;;;;;;;13.30;11.03;;;;;;;5.14;100.00;102063.59;5012143;28;20244;-46
2022/01/22 11:31:19;;;;;;;12.20;10.70;;;;;;;5.26;100.00;102058.06;5014727;28;20663;-47
2022/01/22 11:33:47;;;;;;;16.07;11.40;;;;;;;5.31;100.00;102057.44;5013274;28;20326;-47
2022/01/22 11:36:39;;;;;;;15.67;10.13;;;;;;;5.33;100.00;102060.97;5014575;28;20582;-47
2022/01/22 11:39:06;;;;;;;13.23;10.50;;;;;;;5.38;100.00;102066.28;4981756;28;20620;-46
2022/01/22 11:41:32;;;;;;;12.97;10.93;;;;;;;5.39;100.00;102062.91;5011982;28;20287;-44
2022/01/22 11:44:08;;;;;;;13.70;11.17;;;;;;;5.44;100.00;102057.97;5013900;28;20213;-47
2022/01/22 11:46:42;;;;;;;14.13;11.17;;;;;;;5.52;100.00;102066.84;5013859;28;20676;-46
2022/01/22 11:49:25;;;;;;;16.07;11.67;;;;;;;5.59;100.00;102060.28;5018745;28;20217;-47
2022/01/22 11:52:12;;;;;;;14.57;11.77;;;;;;;5.57;100.00;102065.34;5000038;28;20248;-47
2022/01/22 11:54:52;;;;;;;15.67;11.70;;;;;;;5.57;100.00;102067.03;4996099;28;20208;-46
2022/01/22 11:57:19;;;;;;;17.77;11.80;;;;;;;5.56;100.00;102065.28;4999144;28;20609;-46
2022/01/22 11:59:46;;;;;;;13.07;11.37;;;;;;;5.54;100.00;102065.22;4994960;28;20204;-46
2022/01/22 12:02:16;;;;;;;14.67;10.97;;;;;;;5.54;100.00;102064.34;5016107;28;20188;-46
2022/01/22 12:04:42;;;;;;;13.20;11.03;;;;;;;5.48;100.00;102065.84;5010274;28;20197;-46
2022/01/22 12:07:07;;;;;;;14.33;11.23;;;;;;;5.46;100.00;102058.88;5016877;28;20616;-46
2022/01/22 12:15:23;;;;;;;16.13;11.87;;;;;;;5.47;100.00;102056.41;5014769;28;20230;-46
2022/01/22 12:23:07;;;;;;;13.17;10.93;;;;;;;5.46;100.00;102054.66;5018870;28;20236;-46
2022/01/22 12:25:35;;;;;;;14.57;12.03;;;;;;;5.49;100.00;102053.88;5011385;28;20210;-46
2022/01/22 12:28:01;;;;;;;13.93;11.87;;;;;;;5.48;100.00;102047.00;5008012;28;20583;-46
2022/01/22 12:30:35;;;;;;;13.40;11.50;;;;;;;5.48;100.00;102052.13;5014280;28;20272;-46
2022/01/22 12:33:01;;;;;;;13.47;12.07;;;;;;;5.47;100.00;102048.69;5014618;28;20218;-46
2022/01/22 12:35:43;;;;;;;19.10;13.87;;;;;;;5.48;100.00;102042.75;5020486;28;20279;-46
2022/01/22 12:38:15;;;;;;;15.93;12.43;;;;;;;5.45;100.00;102044.28;5015235;28;20241;-46
2022/01/22 12:40:43;;;;;;;15.60;13.27;;;;;;;5.43;100.00;102038.25;5017097;28;20674;-47
2022/01/22 12:43:12;;;;;;;21.70;17.87;;;;;;;5.48;100.00;102039.28;5014340;28;20191;-46
2022/01/22 12:45:41;;;;;;;23.57;18.97;;;;;;;5.52;100.00;102038.59;5018834;28;20275;-53
2022/01/22 12:48:06;;;;;;;18.47;16.57;;;;;;;5.54;100.00;102036.97;5015340;28;20216;-45
2022/01/22 12:50:35;;;;;;;21.10;17.87;;;;;;;5.62;100.00;102038.16;5017680;28;20212;-45
2022/01/22 12:53:08;;;;;;;21.13;17.80;;;;;;;5.69;100.00;102035.84;5001190;28;20222;-45
2022/01/22 12:56:02;;;;;;;25.23;20.23;;;;;;;5.68;100.00;102034.94;5017348;28;22072;-45
2022/01/22 12:58:29;;;;;;;20.47;16.60;;;;;;;5.65;100.00;102037.41;5011048;28;20209;-45
2022/01/22 13:01:10;;;;;;;23.27;17.57;;;;;;;5.63;100.00;102034.75;5013415;28;20271;-45